Time;durP1;ratioP1;P1;durP2;ratioP2;P2;SDS_P1;SDS_P2;PMS_P1;PMS_P2;Temp;Humidity;BMP_temperature;BMP_pressure;BME280_temperature;BME280_humidity;BME280_pressure;Samples;Min_cycle;Max_cycle;Signal;HPM_P1;HPM_P2
2022/09/15 00:01:41;;;;;;;9.47;2.67;;;;;;;13.20;100.00;99666.72;5034688;28;20099;-78
2022/09/15 00:04:07;;;;;;;6.53;3.30;;;;;;;13.20;100.00;99656.00;5027911;28;20029;-80
2022/09/15 00:06:33;;;;;;;;;;;;;;;13.25;100.00;99658.88;5027192;28;20025;-80
2022/09/15 00:08:59;;;;;;;;;;;;;;;13.20;100.00;99661.34;5011002;28;20412;-81
2022/09/15 00:11:26;;;;;;;;;;;;;;;13.12;100.00;99659.72;5010929;28;19912;-80
2022/09/15 00:13:52;;;;;;;5.35;2.78;;;;;;;13.07;100.00;99654.97;5010446;28;19917;-79
2022/09/15 00:16:18;;;;;;;;;;;;;;;12.96;100.00;99655.56;5027340;28;20383;-80
2022/09/15 00:18:44;;;;;;;5.32;3.08;;;;;;;13.00;100.00;99643.44;5010788;28;19913;-81
2022/09/15 00:21:14;;;;;;;7.30;3.10;;;;;;;13.09;100.00;99649.41;5027243;28;20147;-79
2022/09/15 00:23:39;;;;;;;8.57;3.58;;;;;;;13.02;100.00;99640.56;5027862;28;20037;-80
2022/09/15 00:26:11;;;;;;;7.10;3.70;;;;;;;13.00;100.00;99629.22;5027622;28;20071;-80
2022/09/15 00:28:37;;;;;;;9.57;3.03;;;;;;;12.93;100.00;99628.38;5065668;22;20040;-78
2022/09/15 00:31:14;;;;;;;15.38;5.10;;;;;;;12.95;100.00;99627.16;5077089;28;20107;-78
2022/09/15 00:33:40;;;;;;;11.73;4.20;;;;;;;13.04;100.00;99631.28;5077842;28;20046;-78
2022/09/15 00:36:09;;;;;;;7.15;4.07;;;;;;;13.07;100.00;99625.50;5084377;28;20403;-78
2022/09/15 00:38:35;;;;;;;9.45;3.58;;;;;;;13.15;100.00;99623.63;5084576;28;20396;-77
2022/09/15 00:41:02;;;;;;;6.30;3.33;;;;;;;13.07;100.00;99624.69;5084391;28;20038;-78
2022/09/15 00:43:46;;;;;;;11.00;4.00;;;;;;;12.99;100.00;99620.31;5084294;28;20060;-78
2022/09/15 00:46:13;;;;;;;7.55;3.47;;;;;;;13.09;100.00;99618.09;5067761;28;20039;-78
2022/09/15 00:48:57;;;;;;;8.98;3.10;;;;;;;13.01;100.00;99615.59;5067974;28;20023;-78
2022/09/15 00:51:31;;;;;;;12.18;4.28;;;;;;;12.96;100.00;99601.19;5084465;28;20397;-78
2022/09/15 00:54:00;;;;;;;7.07;2.60;;;;;;;12.98;100.00;99610.66;5077623;28;20043;-78
2022/09/15 00:56:26;;;;;;;10.80;3.72;;;;;;;12.97;100.00;99605.50;5083760;28;20348;-78
2022/09/15 00:58:56;;;;;;;;;;;;;;;12.90;100.00;99602.84;5086411;28;20051;-78
2022/09/15 01:01:26;;;;;;;10.05;2.67;;;;;;;12.84;100.00;99600.97;5068348;28;19942;-77
2022/09/15 01:03:52;;;;;;;10.18;3.22;;;;;;;12.83;100.00;99597.47;5084931;28;20028;-78
2022/09/15 01:06:27;;;;;;;7.97;4.03;;;;;;;12.81;100.00;99606.75;5091543;28;20019;-78
2022/09/15 01:08:57;;;;;;;9.73;3.50;;;;;;;12.84;100.00;99598.28;5091639;28;20032;-78
2022/09/15 01:11:22;;;;;;;8.60;2.92;;;;;;;12.81;100.00;99590.69;5073322;28;20059;-77
2022/09/15 01:13:48;;;;;;;6.57;2.90;;;;;;;12.77;100.00;99605.50;5088968;28;20472;-77
2022/09/15 01:16:50;;;;;;;9.07;2.72;;;;;;;12.74;100.00;99603.25;5088596;28;20028;-78
2022/09/15 01:19:37;;;;;;;10.98;2.78;;;;;;;12.70;100.00;99610.84;5089525;28;20759;-78
2022/09/15 01:22:33;;;;;;;8.70;2.90;;;;;;;12.67;100.00;99609.41;5088314;28;20032;-77
2022/09/15 01:25:35;;;;;;;11.85;2.83;;;;;;;12.57;100.00;99600.94;5088765;28;20046;-77
2022/09/15 01:28:38;;;;;;;7.20;2.80;;;;;;;12.61;100.00;99610.19;5084469;28;20036;-78
2022/09/15 01:31:23;;;;;;;9.15;2.60;;;;;;;12.50;100.00;99591.22;5070880;28;20039;-78
2022/09/15 01:33:57;;;;;;;9.75;2.83;;;;;;;12.51;100.00;99587.53;5099458;28;20032;-77
2022/09/15 01:36:44;;;;;;;6.78;2.83;;;;;;;12.52;100.00;99599.88;5088023;28;20082;-77
2022/09/15 01:39:17;;;;;;;7.38;2.92;;;;;;;12.46;100.00;99597.00;5071285;28;20074;-78
2022/09/15 01:42:11;;;;;;;8.57;2.80;;;;;;;12.48;100.00;99596.81;5088026;28;20036;-77
2022/09/15 01:44:50;;;;;;;9.32;3.05;;;;;;;12.51;100.00;99592.91;5087844;28;20125;-77
2022/09/15 01:47:19;;;;;;;8.07;2.72;;;;;;;12.59;100.00;99601.53;5088185;28;20035;-77
2022/09/15 01:49:51;;;;;;;8.15;2.97;;;;;;;12.60;100.00;99603.22;5088895;28;20040;-77
2022/09/15 01:52:19;;;;;;;9.77;3.30;;;;;;;12.59;100.00;99601.53;5069493;28;20050;-78
2022/09/15 01:54:49;;;;;;;7.43;2.38;;;;;;;12.64;100.00;99617.84;5077448;28;20042;-77
2022/09/15 01:57:21;;;;;;;6.43;2.05;;;;;;;12.58;100.00;99607.94;5086223;28;20032;-78
2022/09/15 01:59:48;;;;;;;7.55;1.75;;;;;;;12.49;100.00;99609.16;5087125;28;20086;-77
2022/09/15 02:02:21;;;;;;;4.82;1.63;;;;;;;12.37;100.00;99581.34;5088828;28;20028;-78
2022/09/15 02:04:57;;;;;;;3.15;1.17;;;;;;;12.25;100.00;99560.50;5087914;28;20321;-78
2022/09/15 02:08:04;;;;;;;3.35;1.00;;;;;;;12.20;100.00;99546.91;5089204;28;20058;-78
2022/09/15 02:10:52;;;;;;;4.88;1.52;;;;;;;12.09;100.00;99531.44;5088690;28;20641;-78
2022/09/15 02:13:31;;;;;;;6.90;1.70;;;;;;;12.03;100.00;99521.53;5086956;28;20055;-76
2022/09/15 02:15:58;;;;;;;7.03;1.23;;;;;;;12.04;100.00;99531.25;5086010;28;20127;-76
2022/09/15 02:18:31;;;;;;;8.10;1.30;;;;;;;12.00;100.00;99517.44;5088210;28;20070;-76
2022/09/15 02:21:09;;;;;;;7.15;1.63;;;;;;;11.97;100.00;99522.38;5079148;28;20040;-79
2022/09/15 02:23:42;;;;;;;6.18;1.52;;;;;;;11.96;100.00;99515.34;5087287;28;20032;-78
2022/09/15 02:26:12;;;;;;;2.30;1.10;;;;;;;11.86;100.00;99498.84;5087131;28;20085;-77
2022/09/15 02:28:41;;;;;;;6.63;1.25;;;;;;;11.95;100.00;99508.38;5086311;28;20027;-76
2022/09/15 02:31:13;;;;;;;2.17;0.77;;;;;;;11.94;100.00;99496.00;5088099;28;20023;-76
2022/09/15 02:33:43;;;;;;;3.83;1.10;;;;;;;12.01;100.00;99489.66;5088540;28;20531;-77
2022/09/15 02:36:14;;;;;;;3.83;1.00;;;;;;;11.92;100.00;99482.03;5086043;28;20077;-76
2022/09/15 02:38:49;;;;;;;3.50;0.85;;;;;;;11.94;100.00;99480.81;5086493;28;20040;-76
2022/09/15 02:41:16;;;;;;;6.30;1.30;;;;;;;11.87;100.00;99481.75;5086775;28;20506;-76
2022/09/15 02:43:48;;;;;;;2.60;1.23;;;;;;;11.85;100.00;99503.38;5087454;28;20032;-76
2022/09/15 02:46:18;;;;;;;2.55;0.80;;;;;;;11.83;100.00;99513.44;5069375;28;20077;-76
2022/09/15 02:48:43;;;;;;;3.50;1.00;;;;;;;11.88;100.00;99507.53;5067897;28;20461;-78
2022/09/15 02:51:09;;;;;;;2.47;0.95;;;;;;;11.89;100.00;99504.63;5067433;28;20044;-76
2022/09/15 02:53:35;;;;;;;4.43;0.98;;;;;;;11.94;100.00;99488.84;5069985;28;20040;-76
2022/09/15 02:56:04;;;;;;;4.47;0.90;;;;;;;11.91;100.00;99480.38;5069405;28;20019;-77
2022/09/15 02:58:30;;;;;;;4.82;1.10;;;;;;;11.81;100.00;99480.72;5085789;28;20032;-76
2022/09/15 03:00:56;;;;;;;7.05;1.35;;;;;;;11.74;100.00;99485.25;5085892;28;20373;-76
2022/09/15 03:03:22;;;;;;;9.30;1.10;;;;;;;11.78;100.00;99487.31;5078844;28;20050;-77
2022/09/15 03:05:47;;;;;;;4.67;1.20;;;;;;;11.64;100.00;99490.97;5086521;28;20040;-75
2022/09/15 03:08:13;;;;;;;14.33;2.40;;;;;;;11.64;100.00;99512.34;5087072;28;20346;-76
2022/09/15 03:10:38;;;;;;;5.10;1.57;;;;;;;11.68;100.00;99526.94;5085441;28;20109;-75
2022/09/15 03:13:04;;;;;;;3.27;0.90;;;;;;;11.78;100.00;99535.44;5086906;28;20102;-78
2022/09/15 03:15:29;;;;;;;4.90;2.53;;;;;;;11.78;100.00;99535.44;5087588;28;20059;-76
2022/09/15 03:17:55;;;;;;;2.43;0.93;;;;;;;11.85;100.00;99535.47;5085557;28;20230;-76
2022/09/15 03:20:27;;;;;;;6.53;0.93;;;;;;;11.89;100.00;99511.84;5085821;28;20492;-77
2022/09/15 03:22:53;;;;;;;4.05;1.30;;;;;;;11.95;100.00;99498.50;5085255;28;20056;-76
2022/09/15 03:25:19;;;;;;;3.67;0.80;;;;;;;11.96;100.00;99496.63;5085494;28;20554;-77
2022/09/15 03:27:45;;;;;;;5.57;1.27;;;;;;;12.06;100.00;99491.75;5078363;28;20133;-78
2022/09/15 03:30:11;;;;;;;;;;;;;;;11.98;100.00;99486.56;5071230;28;20519;-77
2022/09/15 03:32:36;;;;;;;;;;;;;;;11.97;100.00;99484.94;5087369;28;19916;-76
2022/09/15 03:35:03;;;;;;;6.53;1.93;;;;;;;11.98;100.00;99475.84;5086416;28;19908;-76
2022/09/15 03:37:29;;;;;;;6.20;1.13;;;;;;;11.96;100.00;99467.22;5079072;28;20283;-76
2022/09/15 03:39:54;;;;;;;3.60;1.10;;;;;;;12.01;100.00;99481.66;5088130;28;20398;-76
2022/09/15 03:42:22;;;;;;;5.43;1.05;;;;;;;11.99;100.00;99474.84;5068823;28;20390;-78
2022/09/15 03:44:47;;;;;;;5.72;1.25;;;;;;;11.90;100.00;99474.22;5086185;28;20526;-77
2022/09/15 03:47:13;;;;;;;6.57;1.40;;;;;;;11.98;100.00;99486.56;5085239;28;20024;-77
2022/09/15 03:49:38;;;;;;;6.60;1.38;;;;;;;11.99;100.00;99498.94;5086404;28;20377;-76
2022/09/15 03:52:03;;;;;;;6.93;1.03;;;;;;;11.98;100.00;99507.97;5088695;28;20036;-76
2022/09/15 03:54:29;;;;;;;6.20;1.23;;;;;;;11.99;100.00;99499.75;5087347;28;20032;-77
2022/09/15 03:56:54;;;;;;;9.68;1.55;;;;;;;12.06;100.00;99513.13;5085639;28;20035;-76
2022/09/15 03:59:20;;;;;;;7.83;1.40;;;;;;;12.05;100.00;99492.75;5085946;28;20105;-76
2022/09/15 04:01:46;;;;;;;15.57;2.07;;;;;;;11.93;100.00;99481.00;5084948;28;20028;-77
2022/09/15 04:04:13;;;;;;;5.60;1.50;;;;;;;11.95;100.00;99490.47;5086884;28;20291;-77
2022/09/15 04:06:40;;;;;;;8.75;1.58;;;;;;;11.89;100.00;99487.78;5086330;28;20061;-76
2022/09/15 04:09:05;;;;;;;8.35;1.50;;;;;;;11.77;100.00;99488.31;5069107;28;20556;-76
2022/09/15 04:11:34;;;;;;;10.98;1.90;;;;;;;11.75;100.00;99498.41;5078687;28;20103;-76
2022/09/15 04:14:00;;;;;;;7.68;1.15;;;;;;;11.74;100.00;99502.09;5086511;28;20399;-76
2022/09/15 04:16:28;;;;;;;11.17;1.43;;;;;;;11.80;100.00;99506.66;5087051;28;20050;-77
2022/09/15 04:18:54;;;;;;;9.20;2.00;;;;;;;11.77;100.00;99496.34;5086128;28;20020;-76
2022/09/15 04:21:24;;;;;;;10.93;1.92;;;;;;;11.78;100.00;99489.16;5086075;28;20389;-77
2022/09/15 04:23:50;;;;;;;7.07;1.40;;;;;;;11.75;100.00;99485.03;5085359;28;20081;-76
2022/09/15 04:26:27;;;;;;;12.18;1.75;;;;;;;11.71;100.00;99481.13;5085153;28;20035;-76
2022/09/15 04:28:52;;;;;;;5.20;1.02;;;;;;;11.72;100.00;99482.75;5084713;28;20032;-76
2022/09/15 04:31:19;;;;;;;9.65;2.53;;;;;;;11.70;100.00;99487.47;5086568;28;20111;-76
2022/09/15 04:33:46;;;;;;;8.35;2.10;;;;;;;11.74;100.00;99491.41;5085993;28;20036;-76
2022/09/15 04:36:15;;;;;;;7.88;1.52;;;;;;;11.83;100.00;99484.84;5066813;28;20028;-79
2022/09/15 04:38:41;;;;;;;7.72;1.30;;;;;;;11.79;100.00;99483.59;5075025;28;20036;-78
2022/09/15 04:41:07;;;;;;;7.45;1.48;;;;;;;11.70;100.00;99475.97;5084298;28;20024;-77
2022/09/15 04:43:34;;;;;;;9.32;2.03;;;;;;;11.64;100.00;99466.91;5101451;28;20032;-75
2022/09/15 04:45:59;;;;;;;10.30;1.63;;;;;;;11.74;100.00;99487.91;5089068;28;20016;-75
2022/09/15 04:48:25;;;;;;;8.90;1.67;;;;;;;11.74;100.00;99480.72;5088551;28;20520;-76
2022/09/15 04:50:51;;;;;;;8.77;2.13;;;;;;;11.82;100.00;99483.22;5088831;28;20118;-75
2022/09/15 04:53:17;;;;;;;4.07;1.67;;;;;;;11.80;100.00;99485.25;5088165;28;20036;-75
2022/09/15 04:55:42;;;;;;;10.10;1.88;;;;;;;11.78;100.00;99479.28;5088135;28;20024;-77
2022/09/15 04:58:09;;;;;;;8.57;1.30;;;;;;;11.72;100.00;99466.72;5089450;28;20042;-77
2022/09/15 05:00:42;;;;;;;8.02;1.50;;;;;;;11.74;100.00;99469.19;5089691;28;20063;-75
2022/09/15 05:03:09;;;;;;;5.85;1.40;;;;;;;11.78;100.00;99468.59;5081493;28;20024;-75
2022/09/15 05:05:34;;;;;;;13.75;1.65;;;;;;;11.70;100.00;99450.03;5071351;28;20020;-75
2022/09/15 05:08:00;;;;;;;8.07;1.50;;;;;;;11.74;100.00;99469.19;5090698;28;20024;-75
2022/09/15 05:10:26;;;;;;;7.97;1.47;;;;;;;11.75;100.00;99466.31;5089163;28;20055;-75
2022/09/15 05:12:52;;;;;;;10.88;1.92;;;;;;;11.82;100.00;99475.19;5089336;28;20393;-75
2022/09/15 05:15:18;;;;;;;15.32;2.00;;;;;;;11.88;100.00;99467.41;5089665;28;20035;-75
2022/09/15 05:17:44;;;;;;;6.93;2.43;;;;;;;11.81;100.00;99473.53;5081784;28;20107;-78
2022/09/15 05:20:10;;;;;;;6.15;1.45;;;;;;;11.87;100.00;99473.75;5089313;28;20373;-78
2022/09/15 05:22:35;;;;;;;8.37;1.20;;;;;;;12.00;100.00;99457.75;5089085;28;20089;-76
2022/09/15 05:25:01;;;;;;;5.35;1.52;;;;;;;12.08;100.00;99454.06;5088276;28;20657;-76
2022/09/15 05:27:29;;;;;;;4.13;1.07;;;;;;;12.13;100.00;99439.06;5071464;28;20024;-76
2022/09/15 05:29:55;;;;;;;11.27;1.30;;;;;;;12.18;100.00;99428.56;5088939;28;20158;-76
2022/09/15 05:32:20;;;;;;;4.07;0.97;;;;;;;12.22;100.00;99427.13;5089858;28;20107;-77
2022/09/15 05:34:46;;;;;;;9.40;1.43;;;;;;;12.22;100.00;99418.25;5088564;28;20075;-77
2022/09/15 05:37:13;;;;;;;10.02;1.73;;;;;;;12.07;100.00;99389.03;5073239;28;20447;-78
2022/09/15 05:39:39;;;;;;;6.90;1.63;;;;;;;12.06;100.00;99397.25;5088638;28;20036;-77
2022/09/15 05:42:05;;;;;;;6.32;1.33;;;;;;;11.98;100.00;99401.78;5088167;28;20016;-78
2022/09/15 05:44:31;;;;;;;11.32;1.90;;;;;;;12.04;100.00;99402.84;5081002;28;20043;-78
2022/09/15 05:46:56;;;;;;;5.70;1.13;;;;;;;12.04;100.00;99408.19;5087158;28;20362;-77
2022/09/15 05:49:22;;;;;;;7.40;1.73;;;;;;;12.01;100.00;99417.44;5087833;28;20032;-76
2022/09/15 05:51:47;;;;;;;11.30;2.10;;;;;;;12.06;100.00;99406.13;5086364;28;20028;-76
2022/09/15 05:54:12;;;;;;;11.17;1.60;;;;;;;12.05;100.00;99412.50;5088524;28;20285;-77
2022/09/15 05:56:38;;;;;;;3.93;1.40;;;;;;;11.99;100.00;99397.28;5088097;28;20026;-75
2022/09/15 05:59:03;;;;;;;7.83;1.50;;;;;;;12.02;100.00;99394.19;5086392;28;20020;-74
2022/09/15 06:01:29;;;;;;;3.90;0.90;;;;;;;12.21;100.00;99400.56;5087695;28;20030;-76
2022/09/15 06:03:56;;;;;;;;;;;;;;;13.16;100.00;99389.47;5087137;28;20024;-76
2022/09/15 06:06:22;;;;;;;8.20;1.25;;;;;;;14.01;100.00;99306.88;5088016;28;19912;-76
2022/09/15 06:08:54;;;;;;;7.65;1.48;;;;;;;13.78;100.00;99186.75;5085540;28;20450;-76
2022/09/15 06:11:24;;;;;;;3.50;1.17;;;;;;;13.76;100.00;99116.44;5086589;28;20085;-74
2022/09/15 06:13:49;;;;;;;3.70;1.00;;;;;;;13.12;100.00;99106.91;5086368;28;20105;-74
2022/09/15 06:16:18;;;;;;;3.57;1.47;;;;;;;12.77;100.00;99180.50;5087797;28;20131;-73
2022/09/15 06:18:44;;;;;;;5.97;1.33;;;;;;;12.82;100.00;99252.16;5085953;28;20498;-74
2022/09/15 06:21:11;;;;;;;;;;;;;;;12.65;100.00;99298.16;5087716;28;20032;-75
2022/09/15 06:23:37;;;;;;;8.23;1.42;;;;;;;12.65;100.00;99300.84;5087004;28;19912;-74
2022/09/15 06:26:17;;;;;;;11.38;1.55;;;;;;;12.79;100.00;99328.41;5087232;28;20031;-73
2022/09/15 06:28:49;;;;;;;4.50;1.42;;;;;;;13.09;100.00;99322.53;5087829;28;20130;-73
2022/09/15 06:31:14;;;;;;;6.15;1.00;;;;;;;13.18;100.00;99312.34;5085787;28;20046;-75
2022/09/15 06:33:42;;;;;;;8.07;1.88;;;;;;;13.38;100.00;99347.94;5087387;28;20020;-73
2022/09/15 06:36:10;;;;;;;6.47;1.15;;;;;;;13.88;100.00;99294.41;5085652;28;20103;-73
2022/09/15 06:38:35;;;;;;;6.50;1.10;;;;;;;13.68;100.00;99245.47;5085835;28;20555;-74
2022/09/15 06:41:01;;;;;;;7.80;1.27;;;;;;;13.32;100.00;99233.53;5085614;28;20081;-73
2022/09/15 06:43:26;;;;;;;9.23;1.77;;;;;;;13.28;100.00;99281.41;5084144;28;20029;-73
2022/09/15 06:45:52;;;;;;;4.90;1.40;;;;;;;12.99;100.00;99293.47;5081480;28;20032;-73
2022/09/15 06:48:18;;;;;;;8.53;1.63;;;;;;;12.78;100.00;99320.56;5083013;28;20063;-76
2022/09/15 06:50:43;;;;;;;8.30;1.30;;;;;;;13.22;100.00;99354.59;5075718;28;20111;-74
2022/09/15 06:53:09;;;;;;;6.68;1.05;;;;;;;13.97;100.00;99361.19;5084659;28;20043;-77
2022/09/15 06:55:35;;;;;;;19.63;1.88;;;;;;;14.26;100.00;99288.06;5073726;28;20093;-77
2022/09/15 06:58:00;;;;;;;4.03;0.93;;;;;;;14.94;100.00;99216.41;5073955;28;20028;-76
2022/09/15 07:00:26;;;;;;;6.43;1.70;;;;;;;15.00;100.00;99067.69;5094870;28;20161;-76
2022/09/15 07:02:52;;;;;;;6.63;1.48;;;;;;;15.54;100.00;99063.00;5078670;28;20115;-76
2022/09/15 07:05:17;;;;;;;11.23;1.90;;;;;;;15.43;100.00;99023.50;5067733;28;20127;-75
2022/09/15 07:07:43;;;;;;;6.53;1.57;;;;;;;15.58;100.00;99007.69;5078559;28;20735;-74
2022/09/15 07:10:08;;;;;;;10.40;1.13;;;;;;;14.73;100.00;98941.06;5086451;28;20469;-74
2022/09/15 07:12:34;;;;;;;7.33;0.93;;;;;;;14.63;100.00;99043.66;5081739;28;20052;-75
2022/09/15 07:15:03;;;;;;;5.07;1.20;;;;;;;14.43;100.00;99126.38;5098371;28;20043;-74
2022/09/15 07:17:28;;;;;;;5.78;1.17;;;;;;;15.04;100.00;99203.25;5080514;28;20629;-75
2022/09/15 07:19:53;;;;;;;4.13;0.93;;;;;;;14.95;100.00;99185.81;5079234;28;20062;-75
2022/09/15 07:22:19;;;;;;;10.30;1.10;;;;;;;14.75;100.00;99132.38;5101108;28;20035;-75
2022/09/15 07:24:44;;;;;;;7.40;1.10;;;;;;;14.65;100.00;99188.50;5080190;28;20048;-75
2022/09/15 07:27:09;;;;;;;9.13;1.13;;;;;;;14.77;100.00;99167.84;5082620;28;20028;-75
2022/09/15 07:29:37;;;;;;;7.97;1.23;;;;;;;15.51;100.00;99170.25;5076682;28;20024;-76
2022/09/15 07:32:02;;;;;;;4.57;0.93;;;;;;;15.62;100.00;99051.88;5075117;28;20051;-75
2022/09/15 07:34:27;;;;;;;5.65;1.48;;;;;;;15.97;100.00;98991.00;5084423;28;20059;-75
2022/09/15 07:36:53;;;;;;;5.40;1.13;;;;;;;16.39;100.00;98918.78;5078271;28;20046;-74
2022/09/15 07:39:21;;;;;;;7.67;1.07;;;;;;;16.87;100.00;98911.97;5086260;28;20124;-75
2022/09/15 07:41:47;;;;;;;5.55;0.80;;;;;;;16.07;100.00;98646.63;5088203;28;20016;-75
2022/09/15 07:44:13;;;;;;;7.50;1.17;;;;;;;16.24;100.00;98848.50;5076854;28;20704;-75
2022/09/15 07:46:38;;;;;;;10.68;2.20;;;;;;;16.91;100.00;98866.47;5078387;28;20056;-75
2022/09/15 07:49:05;;;;;;;6.47;0.83;;;;;;;16.71;100.00;98805.00;5076328;28;20028;-75
2022/09/15 07:51:30;;;;;;;4.25;1.23;;;;;;;16.65;100.00;98639.78;5069737;28;20020;-75
2022/09/15 07:53:56;;;;;;;6.13;1.10;;;;;;;16.83;100.00;98641.34;5086422;28;20038;-75
2022/09/15 07:56:23;;;;;;;8.73;1.23;;;;;;;16.63;100.00;98625.75;5077624;28;20039;-75
2022/09/15 07:58:49;;;;;;;7.15;1.20;;;;;;;17.32;100.00;98693.53;5077677;28;20103;-76
2022/09/15 08:01:16;;;;;;;9.38;1.55;;;;;;;17.41;100.00;98760.25;5079895;28;20023;-75
2022/09/15 08:03:45;;;;;;;5.40;1.25;;;;;;;18.12;100.00;98757.34;5078465;28;20435;-76
2022/09/15 08:06:11;;;;;;;5.43;1.13;;;;;;;18.51;100.00;98577.88;5076217;28;20059;-75
2022/09/15 08:08:38;;;;;;;5.25;1.70;;;;;;;18.87;100.00;98570.66;5086608;28;20016;-76
2022/09/15 08:11:08;;;;;;;3.58;0.90;;;;;;;18.92;97.22;98400.34;5068421;28;20016;-75
2022/09/15 08:13:34;;;;;;;8.88;2.13;;;;;;;18.86;98.11;98498.75;5077233;28;20929;-75
2022/09/15 08:16:07;;;;;;;7.97;1.55;;;;;;;18.78;96.43;98472.25;5085450;28;20111;-76
2022/09/15 08:18:34;;;;;;;9.50;1.65;;;;;;;19.10;94.37;98457.59;5090225;28;20505;-76
2022/09/15 08:21:04;;;;;;;6.93;1.40;;;;;;;18.77;94.09;98427.38;5081256;28;20054;-76
2022/09/15 08:23:29;;;;;;;8.77;1.70;;;;;;;18.37;92.35;98347.97;5077671;28;20389;-75
2022/09/15 08:25:55;;;;;;;7.27;1.53;;;;;;;19.10;93.42;98601.75;5083405;28;20035;-76
2022/09/15 08:28:20;;;;;;;5.93;1.63;;;;;;;19.57;89.32;98500.50;5074438;28;20054;-76
2022/09/15 08:30:45;;;;;;;8.57;1.33;;;;;;;19.04;87.70;98324.31;5067329;28;20024;-75
2022/09/15 08:33:11;;;;;;;6.13;1.60;;;;;;;20.00;87.96;98614.63;5068144;28;20222;-76
2022/09/15 08:35:36;;;;;;;4.67;1.47;;;;;;;20.35;84.47;98500.97;5084146;28;20030;-76
2022/09/15 08:38:02;;;;;;;6.00;1.10;;;;;;;20.22;83.54;98423.81;5085892;28;20124;-75
2022/09/15 08:40:35;;;;;;;8.57;1.67;;;;;;;19.65;79.46;98098.53;5068624;28;20110;-76
2022/09/15 08:43:14;;;;;;;13.07;2.63;;;;;;;19.38;82.11;98305.47;5072886;28;20463;-75
2022/09/15 08:45:51;;;;;;;5.28;1.20;;;;;;;19.29;83.70;98415.38;5085777;28;20040;-77
2022/09/15 08:48:23;;;;;;;7.60;2.60;;;;;;;19.51;80.80;98333.00;5085380;28;20046;-76
2022/09/15 08:50:52;;;;;;;14.02;1.70;;;;;;;19.38;78.65;98202.66;5085100;28;20036;-76
2022/09/15 08:53:25;;;;;;;9.80;1.75;;;;;;;19.15;76.38;97968.09;5084909;28;20039;-76
2022/09/15 08:55:55;;;;;;;3.25;0.85;;;;;;;17.81;80.95;98043.00;5085294;28;20374;-76
2022/09/15 08:58:24;;;;;;;5.82;1.52;;;;;;;17.68;84.52;98317.69;5085059;28;20032;-76
2022/09/15 09:01:18;;;;;;;11.45;2.65;;;;;;;18.12;87.13;98560.22;5066747;28;20294;-76
2022/09/15 09:04:01;;;;;;;4.43;1.30;;;;;;;16.98;88.43;98400.78;5084131;28;20032;-76
2022/09/15 09:06:45;;;;;;;8.00;1.58;;;;;;;16.97;89.13;98570.84;5083244;28;20031;-75
2022/09/15 09:09:18;;;;;;;12.38;2.78;;;;;;;18.18;83.42;98468.41;5066192;28;20072;-75
2022/09/15 09:12:18;;;;;;;5.18;1.33;;;;;;;18.66;79.12;98336.56;5080669;28;20690;-75
2022/09/15 09:15:03;;;;;;;5.18;1.50;;;;;;;18.24;74.49;97916.44;5071878;28;20047;-75
2022/09/15 09:18:06;;;;;;;4.37;0.97;;;;;;;17.35;79.43;98141.00;5067872;28;20048;-74
2022/09/15 09:20:57;;;;;;;4.75;1.10;;;;;;;18.22;79.77;98469.50;5018204;28;20305;-75
2022/09/15 09:23:27;;;;;;;3.97;1.75;;;;;;;18.30;76.90;98242.09;5013677;28;20046;-76
2022/09/15 09:25:54;;;;;;;4.65;1.60;;;;;;;19.54;73.85;98362.22;5017712;28;20122;-75
2022/09/15 09:28:41;;;;;;;4.47;1.20;;;;;;;19.12;73.62;98225.56;5025367;28;20099;-80
2022/09/15 09:31:17;;;;;;;7.03;1.60;;;;;;;19.95;70.44;98194.91;5017350;28;20648;-77
2022/09/15 09:33:48;;;;;;;4.93;1.65;;;;;;;19.60;71.08;98188.69;5026348;28;20037;-78
2022/09/15 09:36:14;;;;;;;4.00;1.17;;;;;;;19.94;72.02;98404.50;5024674;28;20130;-75
2022/09/15 09:38:42;;;;;;;8.20;1.17;;;;;;;19.71;67.71;97913.34;5001750;28;20026;-77
2022/09/15 09:41:13;;;;;;;4.28;1.27;;;;;;;18.95;68.72;97880.69;5025943;28;20037;-77
2022/09/15 09:43:42;;;;;;;4.15;1.00;;;;;;;18.79;68.37;97816.28;5021842;28;20686;-77
2022/09/15 09:46:14;;;;;;;5.55;1.20;;;;;;;18.18;68.85;97733.97;5023642;28;20037;-78
2022/09/15 09:48:44;;;;;;;4.57;1.00;;;;;;;17.88;72.30;98043.50;5018232;28;20115;-77
2022/09/15 09:51:29;;;;;;;6.50;1.75;;;;;;;17.22;71.79;97861.94;5021865;28;20072;-78
2022/09/15 09:54:01;;;;;;;6.20;1.33;;;;;;;17.32;76.10;98291.72;5035980;28;20060;-76
2022/09/15 09:56:27;;;;;;;5.80;1.05;;;;;;;17.34;74.32;98170.91;5079048;28;20066;-77
2022/09/15 09:58:56;;;;;;;3.13;1.38;;;;;;;17.34;77.25;98422.53;5081346;28;20178;-78
2022/09/15 10:01:24;;;;;;;5.93;1.15;;;;;;;17.51;75.45;98306.31;5085207;28;20043;-77
2022/09/15 10:04:11;;;;;;;5.63;1.10;;;;;;;18.08;74.96;98418.72;5094744;28;20012;-78
2022/09/15 10:06:38;;;;;;;6.30;1.50;;;;;;;19.15;73.40;98618.00;5081689;28;20401;-78
2022/09/15 10:09:13;;;;;;;3.20;0.88;;;;;;;20.44;68.34;98472.16;5070570;28;20024;-78
2022/09/15 10:11:48;;;;;;;3.37;0.73;;;;;;;19.93;66.42;98098.81;5081111;28;20034;-76
2022/09/15 10:14:40;;;;;;;7.60;1.10;;;;;;;18.46;68.89;97953.81;5079773;28;20647;-76
2022/09/15 10:17:13;;;;;;;8.40;1.65;;;;;;;18.38;70.23;98174.03;5076969;28;20040;-76
2022/09/15 10:19:41;;;;;;;6.43;1.50;;;;;;;18.25;74.57;98521.09;5097602;28;20040;-78
2022/09/15 10:22:06;;;;;;;3.80;1.13;;;;;;;19.19;78.74;99069.97;5083696;28;20024;-78
2022/09/15 10:24:37;;;;;;;13.40;2.47;;;;;;;18.58;75.46;98599.22;5081645;28;20089;-77
2022/09/15 10:27:24;;;;;;;2.58;1.10;;;;;;;19.82;73.06;98775.78;5089468;28;20855;-76
2022/09/15 10:29:50;;;;;;;6.30;1.42;;;;;;;20.75;71.96;98879.47;5092866;28;20046;-76
2022/09/15 10:32:22;;;;;;;7.03;0.97;;;;;;;21.44;68.78;98766.59;5103286;28;20032;-77
2022/09/15 10:34:48;;;;;;;4.80;1.00;;;;;;;21.74;65.92;98524.97;5087549;28;20110;-79
2022/09/15 10:37:35;;;;;;;5.27;1.60;;;;;;;19.74;68.59;98275.50;5078042;28;20123;-77
2022/09/15 10:40:17;;;;;;;6.03;1.42;;;;;;;18.88;70.06;98191.09;5083815;28;20041;-77
2022/09/15 10:43:05;;;;;;;6.20;1.42;;;;;;;19.20;69.30;98260.16;5091276;28;20085;-79
2022/09/15 10:45:39;;;;;;;4.00;1.10;;;;;;;19.91;64.12;98044.94;5029174;28;20120;-77
2022/09/15 10:48:29;;;;;;;3.63;1.02;;;;;;;19.08;65.26;97886.50;5027964;28;20033;-77
2022/09/15 10:51:32;;;;;;;6.32;1.25;;;;;;;19.33;66.72;98145.91;5012132;28;20110;-77
2022/09/15 10:54:17;;;;;;;2.15;0.80;;;;;;;19.83;66.07;98245.94;5025752;28;20037;-76
2022/09/15 10:56:48;;;;;;;5.23;1.30;;;;;;;19.09;67.35;98172.84;5025643;28;20099;-77
2022/09/15 10:59:48;;;;;;;4.78;1.00;;;;;;;19.20;66.96;98168.19;5026257;28;20296;-76
2022/09/15 11:02:20;;;;;;;7.00;1.08;;;;;;;19.78;68.02;98476.06;5024222;28;20056;-77
2022/09/15 11:04:57;;;;;;;6.30;1.25;;;;;;;20.31;65.81;98378.78;5026976;28;20029;-77
2022/09/15 11:07:40;;;;;;;3.03;1.08;;;;;;;20.57;64.04;98267.44;5009410;28;20052;-77
2022/09/15 11:10:21;;;;;;;10.88;1.08;;;;;;;20.01;64.09;98098.97;5008705;28;20103;-76
2022/09/15 11:13:15;;;;;;;5.63;1.50;;;;;;;19.79;65.47;98178.00;5008824;28;20052;-77
2022/09/15 11:16:07;;;;;;;4.97;1.35;;;;;;;19.55;68.10;98431.47;5025616;28;20072;-76
2022/09/15 11:19:31;;;;;;;6.43;1.23;;;;;;;19.33;70.33;98584.16;5025573;28;20030;-76
2022/09/15 11:22:23;;;;;;;8.13;2.00;;;;;;;20.59;65.87;98495.66;4951013;28;20459;-76
2022/09/15 11:25:00;;;;;;;4.88;0.88;;;;;;;18.69;66.44;97946.88;5078639;28;20045;-76
2022/09/15 11:27:35;;;;;;;8.50;2.08;;;;;;;18.17;66.83;97924.03;5079456;28;20038;-76
2022/09/15 11:30:06;;;;;;;7.05;1.45;;;;;;;18.66;67.33;98177.94;5088839;28;20275;-77
2022/09/15 11:32:39;;;;;;;4.00;1.20;;;;;;;18.18;70.83;98369.31;5077364;28;20031;-77
2022/09/15 11:35:28;;;;;;;3.90;1.35;;;;;;;17.88;71.93;98419.47;5081704;28;20027;-77
2022/09/15 11:37:59;;;;;;;2.55;0.95;;;;;;;17.60;81.25;98965.75;5083023;28;20016;-77
2022/09/15 11:40:35;;;;;;;5.22;1.38;;;;;;;17.65;91.85;99451.59;5087213;28;20028;-77
2022/09/15 11:43:09;;;;;;;3.80;1.52;;;;;;;16.85;100.00;99539.38;5092081;28;20036;-78
2022/09/15 11:45:42;;;;;;;12.63;1.50;;;;;;;14.92;100.00;99651.16;5079641;28;20607;-78
2022/09/15 11:48:26;;;;;;;5.50;1.20;;;;;;;13.33;100.00;99972.38;5069227;28;20030;-79